Weather at Newtownards Airport

Public forecast

Using degrees Celsius for public forecast. Weather courtesy of forecast.io.

Closest aviation weather report (METAR) to Newtownards Airport

Closest report is George Best Belfast City Airport, 6.7 nm (12.3 km) WNW. Retrieved 2022/08/15 09:20 UTC (9 minutes ago):

EGAC 150920Z AUTO 35006KT 320V020 9999 NCD 17/14 Q1003

Closest aviation forecast (TAF) to Newtownards Airport

Forecast is more than 12 hours old.

Closest forecast is George Best Belfast City Airport, 6.7 nm (12.3 km) WNW. Retrieved 2021/12/01 18:06 UTC (9 months ago):

TAF TAF EGAC 010102Z 3018/0103 CNL